sensor_id;sensor_type;location;lat;lon;timestamp;temperature;humidity
12874;DHT22;6505;51.114;13.128;2022-09-12T00:01:20;20.90;69.10
12874;DHT22;6505;51.114;13.128;2022-09-12T00:03:50;20.90;69.30
12874;DHT22;6505;51.114;13.128;2022-09-12T00:06:21;20.90;69.30
12874;DHT22;6505;51.114;13.128;2022-09-12T00:08:54;20.90;69.30
12874;DHT22;6505;51.114;13.128;2022-09-12T00:11:23;20.90;69.30
12874;DHT22;6505;51.114;13.128;2022-09-12T00:13:54;20.90;69.20
12874;DHT22;6505;51.114;13.128;2022-09-12T00:16:24;20.90;69.40
12874;DHT22;6505;51.114;13.128;2022-09-12T00:18:54;20.90;69.40
12874;DHT22;6505;51.114;13.128;2022-09-12T00:21:22;20.90;69.30
12874;DHT22;6505;51.114;13.128;2022-09-12T00:23:52;20.90;69.30
12874;DHT22;6505;51.114;13.128;2022-09-12T00:26:21;20.80;69.30
12874;DHT22;6505;51.114;13.128;2022-09-12T00:28:49;20.90;69.50
12874;DHT22;6505;51.114;13.128;2022-09-12T00:31:19;20.90;69.50
12874;DHT22;6505;51.114;13.128;2022-09-12T00:33:49;20.90;69.50
12874;DHT22;6505;51.114;13.128;2022-09-12T00:36:20;20.90;69.50
12874;DHT22;6505;51.114;13.128;2022-09-12T00:38:49;20.90;69.60
12874;DHT22;6505;51.114;13.128;2022-09-12T00:41:20;20.90;69.60
12874;DHT22;6505;51.114;13.128;2022-09-12T00:43:51;20.90;69.70
12874;DHT22;6505;51.114;13.128;2022-09-12T00:46:28;20.90;69.70
12874;DHT22;6505;51.114;13.128;2022-09-12T00:49:04;20.90;69.90
12874;DHT22;6505;51.114;13.128;2022-09-12T00:51:39;20.90;69.80
12874;DHT22;6505;51.114;13.128;2022-09-12T00:54:14;20.90;69.90
12874;DHT22;6505;51.114;13.128;2022-09-12T00:56:48;20.90;69.90
12874;DHT22;6505;51.114;13.128;2022-09-12T00:59:22;21.00;70.00
12874;DHT22;6505;51.114;13.128;2022-09-12T01:01:53;20.90;69.80
12874;DHT22;6505;51.114;13.128;2022-09-12T01:04:25;20.90;69.70
12874;DHT22;6505;51.114;13.128;2022-09-12T01:06:56;20.90;69.80
12874;DHT22;6505;51.114;13.128;2022-09-12T01:09:25;20.90;69.70
12874;DHT22;6505;51.114;13.128;2022-09-12T01:11:54;20.90;69.70
12874;DHT22;6505;51.114;13.128;2022-09-12T01:14:24;20.90;69.80
12874;DHT22;6505;51.114;13.128;2022-09-12T01:16:52;20.90;70.50
12874;DHT22;6505;51.114;13.128;2022-09-12T01:19:40;20.90;69.80
12874;DHT22;6505;51.114;13.128;2022-09-12T01:22:55;20.90;70.00
12874;DHT22;6505;51.114;13.128;2022-09-12T01:25:55;20.80;69.80
12874;DHT22;6505;51.114;13.128;2022-09-12T01:28:52;20.80;69.70
12874;DHT22;6505;51.114;13.128;2022-09-12T01:31:33;20.80;69.80
12874;DHT22;6505;51.114;13.128;2022-09-12T01:34:14;20.90;69.80
12874;DHT22;6505;51.114;13.128;2022-09-12T01:36:58;20.80;69.80
12874;DHT22;6505;51.114;13.128;2022-09-12T01:39:40;20.80;69.90
12874;DHT22;6505;51.114;13.128;2022-09-12T01:42:21;20.80;70.00
12874;DHT22;6505;51.114;13.128;2022-09-12T01:45:04;20.80;70.00
12874;DHT22;6505;51.114;13.128;2022-09-12T01:47:40;20.80;70.20
12874;DHT22;6505;51.114;13.128;2022-09-12T01:50:16;20.80;70.10
12874;DHT22;6505;51.114;13.128;2022-09-12T01:52:50;20.80;70.10
12874;DHT22;6505;51.114;13.128;2022-09-12T01:55:24;20.80;70.10
12874;DHT22;6505;51.114;13.128;2022-09-12T01:57:58;20.80;70.10
12874;DHT22;6505;51.114;13.128;2022-09-12T02:00:31;20.80;70.10
12874;DHT22;6505;51.114;13.128;2022-09-12T02:03:06;20.80;70.10
12874;DHT22;6505;51.114;13.128;2022-09-12T02:05:40;20.80;70.20
12874;DHT22;6505;51.114;13.128;2022-09-12T02:08:14;20.80;70.10
12874;DHT22;6505;51.114;13.128;2022-09-12T02:10:51;20.80;70.10
12874;DHT22;6505;51.114;13.128;2022-09-12T02:13:28;20.80;70.10
12874;DHT22;6505;51.114;13.128;2022-09-12T02:16:03;20.80;70.10
12874;DHT22;6505;51.114;13.128;2022-09-12T02:18:38;20.80;70.10
12874;DHT22;6505;51.114;13.128;2022-09-12T02:21:11;20.80;70.10
12874;DHT22;6505;51.114;13.128;2022-09-12T02:23:45;20.80;70.00
12874;DHT22;6505;51.114;13.128;2022-09-12T02:26:19;20.80;70.00
12874;DHT22;6505;51.114;13.128;2022-09-12T02:28:51;20.80;70.10
12874;DHT22;6505;51.114;13.128;2022-09-12T02:31:23;20.80;69.90
12874;DHT22;6505;51.114;13.128;2022-09-12T02:34:09;20.80;70.00
12874;DHT22;6505;51.114;13.128;2022-09-12T02:36:51;20.80;70.10
12874;DHT22;6505;51.114;13.128;2022-09-12T02:39:29;20.80;70.00
12874;DHT22;6505;51.114;13.128;2022-09-12T02:41:59;20.80;69.80
12874;DHT22;6505;51.114;13.128;2022-09-12T02:44:30;20.80;70.00
12874;DHT22;6505;51.114;13.128;2022-09-12T02:47:03;20.80;70.00
12874;DHT22;6505;51.114;13.128;2022-09-12T02:49:36;20.80;70.80
12874;DHT22;6505;51.114;13.128;2022-09-12T02:52:04;20.80;69.90
12874;DHT22;6505;51.114;13.128;2022-09-12T02:54:32;20.80;70.00
12874;DHT22;6505;51.114;13.128;2022-09-12T02:57:01;20.80;70.00
12874;DHT22;6505;51.114;13.128;2022-09-12T02:59:29;20.80;70.00
12874;DHT22;6505;51.114;13.128;2022-09-12T03:02:10;20.80;70.00
12874;DHT22;6505;51.114;13.128;2022-09-12T03:05:02;20.70;70.10
12874;DHT22;6505;51.114;13.128;2022-09-12T03:08:03;20.70;70.00
12874;DHT22;6505;51.114;13.128;2022-09-12T03:11:03;20.80;70.10
12874;DHT22;6505;51.114;13.128;2022-09-12T03:13:51;20.80;70.10
12874;DHT22;6505;51.114;13.128;2022-09-12T03:16:34;20.80;70.00
12874;DHT22;6505;51.114;13.128;2022-09-12T03:19:15;20.80;69.90
12874;DHT22;6505;51.114;13.128;2022-09-12T03:21:57;20.80;70.00
12874;DHT22;6505;51.114;13.128;2022-09-12T03:24:32;20.80;69.90
12874;DHT22;6505;51.114;13.128;2022-09-12T03:27:08;20.70;69.80
12874;DHT22;6505;51.114;13.128;2022-09-12T03:29:42;20.70;69.80
12874;DHT22;6505;51.114;13.128;2022-09-12T03:32:14;20.70;69.70
12874;DHT22;6505;51.114;13.128;2022-09-12T03:34:42;20.70;69.70
12874;DHT22;6505;51.114;13.128;2022-09-12T03:37:11;20.70;69.60
12874;DHT22;6505;51.114;13.128;2022-09-12T03:39:39;20.70;69.60
12874;DHT22;6505;51.114;13.128;2022-09-12T03:42:07;20.70;69.60
12874;DHT22;6505;51.114;13.128;2022-09-12T03:44:35;20.70;69.50
12874;DHT22;6505;51.114;13.128;2022-09-12T03:47:03;20.70;69.30
12874;DHT22;6505;51.114;13.128;2022-09-12T03:49:36;20.60;69.10
12874;DHT22;6505;51.114;13.128;2022-09-12T03:52:04;20.60;69.10
12874;DHT22;6505;51.114;13.128;2022-09-12T03:54:33;20.60;69.10
12874;DHT22;6505;51.114;13.128;2022-09-12T03:57:02;20.60;69.10
12874;DHT22;6505;51.114;13.128;2022-09-12T03:59:30;20.60;69.10
12874;DHT22;6505;51.114;13.128;2022-09-12T04:01:58;20.60;69.20
12874;DHT22;6505;51.114;13.128;2022-09-12T04:04:26;20.60;69.10
12874;DHT22;6505;51.114;13.128;2022-09-12T04:06:54;20.60;69.10
12874;DHT22;6505;51.114;13.128;2022-09-12T04:09:22;20.60;69.10
12874;DHT22;6505;51.114;13.128;2022-09-12T04:11:51;20.50;69.10
12874;DHT22;6505;51.114;13.128;2022-09-12T04:14:19;20.60;69.30
12874;DHT22;6505;51.114;13.128;2022-09-12T04:16:47;20.50;69.20
12874;DHT22;6505;51.114;13.128;2022-09-12T04:19:15;20.60;69.30
12874;DHT22;6505;51.114;13.128;2022-09-12T04:21:43;20.50;69.20
12874;DHT22;6505;51.114;13.128;2022-09-12T04:24:11;20.50;69.20
12874;DHT22;6505;51.114;13.128;2022-09-12T04:26:39;20.50;69.10
12874;DHT22;6505;51.114;13.128;2022-09-12T04:29:10;20.50;69.00
12874;DHT22;6505;51.114;13.128;2022-09-12T04:31:41;20.50;69.10
12874;DHT22;6505;51.114;13.128;2022-09-12T04:34:10;20.50;69.10
12874;DHT22;6505;51.114;13.128;2022-09-12T04:36:38;20.50;69.00
12874;DHT22;6505;51.114;13.128;2022-09-12T04:39:06;20.50;69.00
12874;DHT22;6505;51.114;13.128;2022-09-12T04:41:36;20.50;69.10
12874;DHT22;6505;51.114;13.128;2022-09-12T04:44:07;20.50;69.10
12874;DHT22;6505;51.114;13.128;2022-09-12T04:46:40;20.50;69.10
12874;DHT22;6505;51.114;13.128;2022-09-12T04:49:08;20.40;69.00
12874;DHT22;6505;51.114;13.128;2022-09-12T04:51:38;20.40;68.90
12874;DHT22;6505;51.114;13.128;2022-09-12T04:54:10;20.40;69.00
12874;DHT22;6505;51.114;13.128;2022-09-12T04:56:40;20.40;69.00
12874;DHT22;6505;51.114;13.128;2022-09-12T04:59:11;20.40;68.90
12874;DHT22;6505;51.114;13.128;2022-09-12T05:01:42;20.40;69.00
12874;DHT22;6505;51.114;13.128;2022-09-12T05:04:11;20.40;68.90
12874;DHT22;6505;51.114;13.128;2022-09-12T05:06:40;20.40;68.90
12874;DHT22;6505;51.114;13.128;2022-09-12T05:09:10;20.40;69.00
12874;DHT22;6505;51.114;13.128;2022-09-12T05:11:41;20.40;68.90
12874;DHT22;6505;51.114;13.128;2022-09-12T05:14:30;20.30;68.90
12874;DHT22;6505;51.114;13.128;2022-09-12T05:17:01;20.40;68.90
12874;DHT22;6505;51.114;13.128;2022-09-12T05:19:31;20.30;68.90
12874;DHT22;6505;51.114;13.128;2022-09-12T05:21:59;20.30;68.70
12874;DHT22;6505;51.114;13.128;2022-09-12T05:24:28;20.30;68.80
12874;DHT22;6505;51.114;13.128;2022-09-12T05:26:55;20.30;68.80
12874;DHT22;6505;51.114;13.128;2022-09-12T05:29:23;20.30;68.90
12874;DHT22;6505;51.114;13.128;2022-09-12T05:31:52;20.30;69.00
12874;DHT22;6505;51.114;13.128;2022-09-12T05:34:21;20.30;69.10
12874;DHT22;6505;51.114;13.128;2022-09-12T05:36:49;20.40;69.20
12874;DHT22;6505;51.114;13.128;2022-09-12T05:39:17;20.40;69.40
12874;DHT22;6505;51.114;13.128;2022-09-12T05:41:45;20.40;69.30
12874;DHT22;6505;51.114;13.128;2022-09-12T05:44:13;20.40;69.30
12874;DHT22;6505;51.114;13.128;2022-09-12T05:46:42;20.40;69.40
12874;DHT22;6505;51.114;13.128;2022-09-12T05:49:12;20.40;70.30
12874;DHT22;6505;51.114;13.128;2022-09-12T05:51:44;20.50;69.70
12874;DHT22;6505;51.114;13.128;2022-09-12T05:54:14;20.40;70.10
12874;DHT22;6505;51.114;13.128;2022-09-12T05:56:45;20.50;69.80
12874;DHT22;6505;51.114;13.128;2022-09-12T05:59:15;20.50;69.80
12874;DHT22;6505;51.114;13.128;2022-09-12T06:01:44;20.50;69.80
12874;DHT22;6505;51.114;13.128;2022-09-12T06:04:14;20.50;69.90
12874;DHT22;6505;51.114;13.128;2022-09-12T06:06:44;20.50;70.10
12874;DHT22;6505;51.114;13.128;2022-09-12T06:09:15;20.60;70.10
12874;DHT22;6505;51.114;13.128;2022-09-12T06:11:44;20.60;70.20
12874;DHT22;6505;51.114;13.128;2022-09-12T06:14:14;20.60;71.00
12874;DHT22;6505;51.114;13.128;2022-09-12T06:16:43;20.60;70.40
12874;DHT22;6505;51.114;13.128;2022-09-12T06:19:14;20.60;70.40
12874;DHT22;6505;51.114;13.128;2022-09-12T06:21:45;20.60;70.60
12874;DHT22;6505;51.114;13.128;2022-09-12T06:24:15;20.70;70.60
12874;DHT22;6505;51.114;13.128;2022-09-12T06:26:44;20.70;70.50
12874;DHT22;6505;51.114;13.128;2022-09-12T06:29:13;20.70;70.60
12874;DHT22;6505;51.114;13.128;2022-09-12T06:31:42;20.70;70.70
12874;DHT22;6505;51.114;13.128;2022-09-12T06:34:12;20.70;70.80
12874;DHT22;6505;51.114;13.128;2022-09-12T06:36:42;20.80;70.90
12874;DHT22;6505;51.114;13.128;2022-09-12T06:39:14;20.70;70.80
12874;DHT22;6505;51.114;13.128;2022-09-12T06:41:44;20.70;70.70
12874;DHT22;6505;51.114;13.128;2022-09-12T06:44:13;20.80;71.10
12874;DHT22;6505;51.114;13.128;2022-09-12T06:46:43;20.80;71.30
12874;DHT22;6505;51.114;13.128;2022-09-12T06:49:11;20.80;71.30
12874;DHT22;6505;51.114;13.128;2022-09-12T06:51:40;20.80;71.30
12874;DHT22;6505;51.114;13.128;2022-09-12T06:54:11;20.90;71.30
12874;DHT22;6505;51.114;13.128;2022-09-12T06:56:41;21.00;71.50
12874;DHT22;6505;51.114;13.128;2022-09-12T06:59:09;21.00;71.50
12874;DHT22;6505;51.114;13.128;2022-09-12T07:01:37;21.00;71.40
12874;DHT22;6505;51.114;13.128;2022-09-12T07:04:05;21.00;71.50
12874;DHT22;6505;51.114;13.128;2022-09-12T07:06:36;21.10;71.50
12874;DHT22;6505;51.114;13.128;2022-09-12T07:09:07;21.10;71.30
12874;DHT22;6505;51.114;13.128;2022-09-12T07:11:39;21.20;70.90
12874;DHT22;6505;51.114;13.128;2022-09-12T07:14:10;21.30;70.90
12874;DHT22;6505;51.114;13.128;2022-09-12T07:16:39;21.40;70.70
12874;DHT22;6505;51.114;13.128;2022-09-12T07:19:08;21.40;70.50
12874;DHT22;6505;51.114;13.128;2022-09-12T07:21:36;21.50;70.20
12874;DHT22;6505;51.114;13.128;2022-09-12T07:24:07;21.50;70.00
12874;DHT22;6505;51.114;13.128;2022-09-12T07:26:37;21.60;70.00
12874;DHT22;6505;51.114;13.128;2022-09-12T07:29:13;21.60;70.40
12874;DHT22;6505;51.114;13.128;2022-09-12T07:32:03;21.70;69.10
12874;DHT22;6505;51.114;13.128;2022-09-12T07:34:31;21.70;68.90
12874;DHT22;6505;51.114;13.128;2022-09-12T07:37:00;21.80;68.90
12874;DHT22;6505;51.114;13.128;2022-09-12T07:39:27;21.80;69.10
12874;DHT22;6505;51.114;13.128;2022-09-12T07:41:57;21.80;68.80
12874;DHT22;6505;51.114;13.128;2022-09-12T07:44:25;21.90;68.90
12874;DHT22;6505;51.114;13.128;2022-09-12T07:46:54;21.90;69.10
12874;DHT22;6505;51.114;13.128;2022-09-12T07:49:22;22.00;69.30
12874;DHT22;6505;51.114;13.128;2022-09-12T07:51:50;22.00;69.00
12874;DHT22;6505;51.114;13.128;2022-09-12T07:54:18;22.10;68.70
12874;DHT22;6505;51.114;13.128;2022-09-12T07:56:46;22.20;69.20
12874;DHT22;6505;51.114;13.128;2022-09-12T07:59:16;22.30;69.60
12874;DHT22;6505;51.114;13.128;2022-09-12T08:02:04;22.50;69.40
12874;DHT22;6505;51.114;13.128;2022-09-12T08:04:32;22.60;68.90
12874;DHT22;6505;51.114;13.128;2022-09-12T08:07:01;22.80;67.90
12874;DHT22;6505;51.114;13.128;2022-09-12T08:09:29;22.90;67.20
12874;DHT22;6505;51.114;13.128;2022-09-12T08:11:57;23.00;66.70
12874;DHT22;6505;51.114;13.128;2022-09-12T08:14:27;23.10;66.40
12874;DHT22;6505;51.114;13.128;2022-09-12T08:16:55;23.10;66.10
12874;DHT22;6505;51.114;13.128;2022-09-12T08:19:23;23.10;65.70
12874;DHT22;6505;51.114;13.128;2022-09-12T08:21:51;23.20;65.90
12874;DHT22;6505;51.114;13.128;2022-09-12T08:24:19;23.10;66.10
12874;DHT22;6505;51.114;13.128;2022-09-12T08:26:47;23.10;66.20
12874;DHT22;6505;51.114;13.128;2022-09-12T08:29:15;23.10;66.10
12874;DHT22;6505;51.114;13.128;2022-09-12T08:31:45;23.10;66.20
12874;DHT22;6505;51.114;13.128;2022-09-12T08:34:13;23.10;65.90
12874;DHT22;6505;51.114;13.128;2022-09-12T08:36:42;23.00;65.70
12874;DHT22;6505;51.114;13.128;2022-09-12T08:39:11;23.00;65.90
12874;DHT22;6505;51.114;13.128;2022-09-12T08:41:42;23.00;66.30
12874;DHT22;6505;51.114;13.128;2022-09-12T08:44:25;23.00;66.10
12874;DHT22;6505;51.114;13.128;2022-09-12T08:47:13;23.00;66.10
12874;DHT22;6505;51.114;13.128;2022-09-12T08:49:55;23.10;66.00
12874;DHT22;6505;51.114;13.128;2022-09-12T08:52:30;23.10;65.80
12874;DHT22;6505;51.114;13.128;2022-09-12T08:55:05;23.10;65.90
12874;DHT22;6505;51.114;13.128;2022-09-12T08:57:50;23.10;65.40
12874;DHT22;6505;51.114;13.128;2022-09-12T09:00:19;23.10;65.30
12874;DHT22;6505;51.114;13.128;2022-09-12T09:03:03;23.20;65.10
12874;DHT22;6505;51.114;13.128;2022-09-12T09:05:49;23.20;64.90
12874;DHT22;6505;51.114;13.128;2022-09-12T09:11:24;23.30;64.90
12874;DHT22;6505;51.114;13.128;2022-09-12T09:14:11;23.30;64.80
12874;DHT22;6505;51.114;13.128;2022-09-12T09:17:09;23.30;64.20
12874;DHT22;6505;51.114;13.128;2022-09-12T09:19:47;23.30;64.10
12874;DHT22;6505;51.114;13.128;2022-09-12T09:22:23;23.20;63.90
12874;DHT22;6505;51.114;13.128;2022-09-12T09:25:03;23.20;64.50
12874;DHT22;6505;51.114;13.128;2022-09-12T09:27:38;23.20;63.70
12874;DHT22;6505;51.114;13.128;2022-09-12T09:30:13;23.20;63.70
12874;DHT22;6505;51.114;13.128;2022-09-12T09:32:44;23.10;63.60
12874;DHT22;6505;51.114;13.128;2022-09-12T09:35:31;23.10;63.90
12874;DHT22;6505;51.114;13.128;2022-09-12T09:38:20;23.10;64.20
12874;DHT22;6505;51.114;13.128;2022-09-12T09:43:58;23.10;63.90
12874;DHT22;6505;51.114;13.128;2022-09-12T09:46:27;23.10;64.10
12874;DHT22;6505;51.114;13.128;2022-09-12T09:48:56;23.10;63.80
12874;DHT22;6505;51.114;13.128;2022-09-12T09:51:33;23.20;64.30
12874;DHT22;6505;51.114;13.128;2022-09-12T09:54:10;23.20;64.40
12874;DHT22;6505;51.114;13.128;2022-09-12T09:56:44;23.20;64.40
12874;DHT22;6505;51.114;13.128;2022-09-12T09:59:15;23.20;63.80
12874;DHT22;6505;51.114;13.128;2022-09-12T10:01:46;23.30;64.70
12874;DHT22;6505;51.114;13.128;2022-09-12T10:04:17;23.30;63.40
12874;DHT22;6505;51.114;13.128;2022-09-12T10:06:52;23.30;64.00
12874;DHT22;6505;51.114;13.128;2022-09-12T10:09:25;23.40;63.20
12874;DHT22;6505;51.114;13.128;2022-09-12T10:11:55;23.40;62.90
12874;DHT22;6505;51.114;13.128;2022-09-12T10:14:31;23.40;62.30
12874;DHT22;6505;51.114;13.128;2022-09-12T10:17:24;23.40;62.70
12874;DHT22;6505;51.114;13.128;2022-09-12T10:20:00;23.30;61.90
12874;DHT22;6505;51.114;13.128;2022-09-12T10:22:48;23.40;61.90
12874;DHT22;6505;51.114;13.128;2022-09-12T10:25:17;23.30;62.00
12874;DHT22;6505;51.114;13.128;2022-09-12T10:27:52;23.30;61.60
12874;DHT22;6505;51.114;13.128;2022-09-12T10:30:22;23.30;62.20
12874;DHT22;6505;51.114;13.128;2022-09-12T10:32:57;23.30;63.00
12874;DHT22;6505;51.114;13.128;2022-09-12T10:35:43;23.30;61.90
12874;DHT22;6505;51.114;13.128;2022-09-12T10:38:21;23.30;61.40
12874;DHT22;6505;51.114;13.128;2022-09-12T10:40:55;23.30;61.50
12874;DHT22;6505;51.114;13.128;2022-09-12T10:43:28;23.30;61.70
12874;DHT22;6505;51.114;13.128;2022-09-12T10:46:20;23.30;61.80
12874;DHT22;6505;51.114;13.128;2022-09-12T10:49:21;23.20;61.30
12874;DHT22;6505;51.114;13.128;2022-09-12T10:51:52;23.30;61.60
12874;DHT22;6505;51.114;13.128;2022-09-12T10:54:25;23.30;61.30
12874;DHT22;6505;51.114;13.128;2022-09-12T10:57:15;23.30;61.10
12874;DHT22;6505;51.114;13.128;2022-09-12T11:00:08;23.30;61.10
12874;DHT22;6505;51.114;13.128;2022-09-12T11:02:50;23.30;60.70
12874;DHT22;6505;51.114;13.128;2022-09-12T11:05:37;23.30;60.00
12874;DHT22;6505;51.114;13.128;2022-09-12T11:11:42;23.30;60.40
12874;DHT22;6505;51.114;13.128;2022-09-12T11:14:30;23.30;59.20
12874;DHT22;6505;51.114;13.128;2022-09-12T11:17:18;23.40;59.30
12874;DHT22;6505;51.114;13.128;2022-09-12T11:20:14;23.40;59.40
12874;DHT22;6505;51.114;13.128;2022-09-12T11:23:10;23.40;59.70
12874;DHT22;6505;51.114;13.128;2022-09-12T11:26:00;23.40;59.80
12874;DHT22;6505;51.114;13.128;2022-09-12T11:28:45;23.40;59.80
12874;DHT22;6505;51.114;13.128;2022-09-12T11:31:36;23.30;58.50
12874;DHT22;6505;51.114;13.128;2022-09-12T11:34:30;23.30;58.80
12874;DHT22;6505;51.114;13.128;2022-09-12T11:37:23;23.30;58.90
12874;DHT22;6505;51.114;13.128;2022-09-12T11:40:06;23.30;58.90
12874;DHT22;6505;51.114;13.128;2022-09-12T11:42:54;23.30;59.20
12874;DHT22;6505;51.114;13.128;2022-09-12T11:45:28;23.30;59.00
12874;DHT22;6505;51.114;13.128;2022-09-12T11:48:07;23.30;58.50
12874;DHT22;6505;51.114;13.128;2022-09-12T11:50:39;23.30;58.20
12874;DHT22;6505;51.114;13.128;2022-09-12T11:53:14;23.30;58.10
12874;DHT22;6505;51.114;13.128;2022-09-12T11:55:51;23.30;57.30
12874;DHT22;6505;51.114;13.128;2022-09-12T11:58:25;23.30;58.10
12874;DHT22;6505;51.114;13.128;2022-09-12T12:01:09;23.30;57.30
12874;DHT22;6505;51.114;13.128;2022-09-12T12:03:42;23.30;56.90
12874;DHT22;6505;51.114;13.128;2022-09-12T12:06:16;23.30;56.40
12874;DHT22;6505;51.114;13.128;2022-09-12T12:08:47;23.30;56.40
12874;DHT22;6505;51.114;13.128;2022-09-12T12:11:26;23.40;57.10
12874;DHT22;6505;51.114;13.128;2022-09-12T12:13:59;23.40;57.20
12874;DHT22;6505;51.114;13.128;2022-09-12T12:16:33;23.40;57.40
12874;DHT22;6505;51.114;13.128;2022-09-12T12:19:09;23.40;57.40
12874;DHT22;6505;51.114;13.128;2022-09-12T12:21:54;23.40;57.40
12874;DHT22;6505;51.114;13.128;2022-09-12T12:24:31;23.40;57.00
12874;DHT22;6505;51.114;13.128;2022-09-12T12:27:01;23.40;57.20
12874;DHT22;6505;51.114;13.128;2022-09-12T12:29:43;23.50;57.50
12874;DHT22;6505;51.114;13.128;2022-09-12T12:32:21;23.50;57.10
12874;DHT22;6505;51.114;13.128;2022-09-12T12:38:02;23.50;56.20
12874;DHT22;6505;51.114;13.128;2022-09-12T12:40:32;23.50;55.90
12874;DHT22;6505;51.114;13.128;2022-09-12T12:43:13;23.60;55.60
12874;DHT22;6505;51.114;13.128;2022-09-12T12:46:12;23.50;54.60
12874;DHT22;6505;51.114;13.128;2022-09-12T12:48:55;23.60;54.90
12874;DHT22;6505;51.114;13.128;2022-09-12T12:57:34;23.60;53.60
12874;DHT22;6505;51.114;13.128;2022-09-12T13:00:27;23.60;53.60
12874;DHT22;6505;51.114;13.128;2022-09-12T13:03:00;23.60;53.20
12874;DHT22;6505;51.114;13.128;2022-09-12T13:05:40;23.60;53.40
12874;DHT22;6505;51.114;13.128;2022-09-12T13:08:26;23.60;52.40
12874;DHT22;6505;51.114;13.128;2022-09-12T13:11:00;23.60;52.30
12874;DHT22;6505;51.114;13.128;2022-09-12T13:13:37;23.60;52.80
12874;DHT22;6505;51.114;13.128;2022-09-12T13:16:09;23.60;52.70
12874;DHT22;6505;51.114;13.128;2022-09-12T13:18:41;23.60;53.60
12874;DHT22;6505;51.114;13.128;2022-09-12T13:21:14;23.60;53.10
12874;DHT22;6505;51.114;13.128;2022-09-12T13:23:44;23.60;53.20
12874;DHT22;6505;51.114;13.128;2022-09-12T13:26:26;23.70;53.10
12874;DHT22;6505;51.114;13.128;2022-09-12T13:29:11;23.70;54.10
12874;DHT22;6505;51.114;13.128;2022-09-12T13:31:43;23.80;54.00
12874;DHT22;6505;51.114;13.128;2022-09-12T13:34:18;23.80;54.60
12874;DHT22;6505;51.114;13.128;2022-09-12T13:37:21;23.80;54.50
12874;DHT22;6505;51.114;13.128;2022-09-12T13:40:23;23.80;54.80
12874;DHT22;6505;51.114;13.128;2022-09-12T13:43:10;23.80;54.50
12874;DHT22;6505;51.114;13.128;2022-09-12T13:45:43;23.90;54.10
12874;DHT22;6505;51.114;13.128;2022-09-12T13:48:17;23.80;53.90
12874;DHT22;6505;51.114;13.128;2022-09-12T13:50:52;23.90;53.70
12874;DHT22;6505;51.114;13.128;2022-09-12T13:53:24;23.90;54.20
12874;DHT22;6505;51.114;13.128;2022-09-12T13:55:57;23.90;54.20
12874;DHT22;6505;51.114;13.128;2022-09-12T13:58:28;23.90;54.30
12874;DHT22;6505;51.114;13.128;2022-09-12T14:01:05;23.90;53.30
12874;DHT22;6505;51.114;13.128;2022-09-12T14:03:40;24.00;52.90
12874;DHT22;6505;51.114;13.128;2022-09-12T14:06:27;24.00;53.70
12874;DHT22;6505;51.114;13.128;2022-09-12T14:09:11;24.00;53.40
12874;DHT22;6505;51.114;13.128;2022-09-12T14:11:40;24.00;53.80
12874;DHT22;6505;51.114;13.128;2022-09-12T14:14:17;24.00;53.50
12874;DHT22;6505;51.114;13.128;2022-09-12T14:16:53;24.00;53.80
12874;DHT22;6505;51.114;13.128;2022-09-12T14:19:22;24.10;52.70
12874;DHT22;6505;51.114;13.128;2022-09-12T14:21:52;24.10;52.20
12874;DHT22;6505;51.114;13.128;2022-09-12T14:24:22;24.00;52.20
12874;DHT22;6505;51.114;13.128;2022-09-12T14:26:52;24.10;52.30
12874;DHT22;6505;51.114;13.128;2022-09-12T14:29:23;24.10;52.30
12874;DHT22;6505;51.114;13.128;2022-09-12T14:32:00;24.10;52.20
12874;DHT22;6505;51.114;13.128;2022-09-12T14:34:29;24.10;51.80
12874;DHT22;6505;51.114;13.128;2022-09-12T14:36:57;24.10;52.00
12874;DHT22;6505;51.114;13.128;2022-09-12T14:39:31;24.10;51.60
12874;DHT22;6505;51.114;13.128;2022-09-12T14:42:06;24.00;51.20
12874;DHT22;6505;51.114;13.128;2022-09-12T14:44:40;24.10;51.30
12874;DHT22;6505;51.114;13.128;2022-09-12T14:47:20;24.00;51.10
12874;DHT22;6505;51.114;13.128;2022-09-12T14:49:50;24.10;51.60
12874;DHT22;6505;51.114;13.128;2022-09-12T14:52:23;24.10;51.50
12874;DHT22;6505;51.114;13.128;2022-09-12T14:54:59;24.10;51.40
12874;DHT22;6505;51.114;13.128;2022-09-12T14:57:46;24.10;51.60
12874;DHT22;6505;51.114;13.128;2022-09-12T15:00:21;24.00;51.60
12874;DHT22;6505;51.114;13.128;2022-09-12T15:02:51;24.10;51.90
12874;DHT22;6505;51.114;13.128;2022-09-12T15:05:23;24.10;52.30
12874;DHT22;6505;51.114;13.128;2022-09-12T15:07:58;24.10;52.30
12874;DHT22;6505;51.114;13.128;2022-09-12T15:10:30;24.10;52.40
12874;DHT22;6505;51.114;13.128;2022-09-12T15:13:13;24.10;51.90
12874;DHT22;6505;51.114;13.128;2022-09-12T15:15:53;24.10;51.90
12874;DHT22;6505;51.114;13.128;2022-09-12T15:18:23;24.10;52.10
12874;DHT22;6505;51.114;13.128;2022-09-12T15:20:55;24.10;52.30
12874;DHT22;6505;51.114;13.128;2022-09-12T15:23:31;24.10;52.10
12874;DHT22;6505;51.114;13.128;2022-09-12T15:26:03;24.10;52.30
12874;DHT22;6505;51.114;13.128;2022-09-12T15:28:32;24.20;52.60
12874;DHT22;6505;51.114;13.128;2022-09-12T15:31:05;24.10;52.90
12874;DHT22;6505;51.114;13.128;2022-09-12T15:33:36;24.10;52.90
12874;DHT22;6505;51.114;13.128;2022-09-12T15:36:12;24.10;52.90
12874;DHT22;6505;51.114;13.128;2022-09-12T15:38:43;24.10;51.70
12874;DHT22;6505;51.114;13.128;2022-09-12T15:41:15;24.10;52.50
12874;DHT22;6505;51.114;13.128;2022-09-12T15:43:45;24.10;52.60
12874;DHT22;6505;51.114;13.128;2022-09-12T15:46:15;24.10;52.80
12874;DHT22;6505;51.114;13.128;2022-09-12T15:48:44;24.10;52.40
12874;DHT22;6505;51.114;13.128;2022-09-12T15:51:14;24.10;52.50
12874;DHT22;6505;51.114;13.128;2022-09-12T15:53:45;24.10;52.30
12874;DHT22;6505;51.114;13.128;2022-09-12T15:56:17;24.10;52.20
12874;DHT22;6505;51.114;13.128;2022-09-12T15:58:46;24.10;52.20
12874;DHT22;6505;51.114;13.128;2022-09-12T16:01:30;24.10;51.60
12874;DHT22;6505;51.114;13.128;2022-09-12T16:04:01;24.00;51.60
12874;DHT22;6505;51.114;13.128;2022-09-12T16:06:29;24.00;52.00
12874;DHT22;6505;51.114;13.128;2022-09-12T16:09:03;24.00;52.20
12874;DHT22;6505;51.114;13.128;2022-09-12T16:11:32;24.00;52.40
12874;DHT22;6505;51.114;13.128;2022-09-12T16:14:01;24.00;52.60
12874;DHT22;6505;51.114;13.128;2022-09-12T16:16:29;24.00;52.90
12874;DHT22;6505;51.114;13.128;2022-09-12T16:18:57;24.00;53.20
12874;DHT22;6505;51.114;13.128;2022-09-12T16:21:25;23.90;53.00
12874;DHT22;6505;51.114;13.128;2022-09-12T16:23:53;24.00;53.30
12874;DHT22;6505;51.114;13.128;2022-09-12T16:26:21;23.90;53.50
12874;DHT22;6505;51.114;13.128;2022-09-12T16:28:54;24.00;53.80
12874;DHT22;6505;51.114;13.128;2022-09-12T16:31:23;24.00;54.00
12874;DHT22;6505;51.114;13.128;2022-09-12T16:33:51;24.00;54.00